createdAt,value
2019-05-11T00:00:02.444Z,71.10
2019-05-11T00:02:34.451Z,71.10
2019-05-11T00:05:05.687Z,70.80
2019-05-11T00:07:36.614Z,70.70
2019-05-11T00:10:08.366Z,70.90
2019-05-11T00:12:39.350Z,71.00
2019-05-11T00:15:11.306Z,70.90
2019-05-11T00:17:42.449Z,70.80
2019-05-11T00:20:16.885Z,70.70
2019-05-11T00:22:47.984Z,70.60
2019-05-11T00:25:20.243Z,70.30
2019-05-11T00:27:51.507Z,70.00
2019-05-11T00:30:22.662Z,70.00
2019-05-11T00:32:54.378Z,70.60
2019-05-11T00:35:26.259Z,71.00
2019-05-11T00:37:57.321Z,71.30
2019-05-11T00:40:28.991Z,71.20
2019-05-11T00:42:59.921Z,71.40
2019-05-11T00:45:31.153Z,71.30
2019-05-11T00:48:02.659Z,71.70
2019-05-11T00:50:39.261Z,71.80
2019-05-11T00:53:07.085Z,71.80
2019-05-11T00:55:38.820Z,71.90
2019-05-11T00:58:10.318Z,72.00
2019-05-11T01:00:41.525Z,71.80
2019-05-11T01:03:12.425Z,71.60
2019-05-11T01:05:43.553Z,71.30
2019-05-11T01:08:14.652Z,71.20
2019-05-11T01:10:45.818Z,71.20
2019-05-11T01:13:16.978Z,71.40
2019-05-11T01:15:48.014Z,71.20
2019-05-11T01:18:19.457Z,71.10
2019-05-11T01:20:50.471Z,71.10
2019-05-11T01:23:21.540Z,70.90
2019-05-11T01:25:52.673Z,70.40
2019-05-11T01:28:23.634Z,70.30
2019-05-11T01:30:54.595Z,70.40
2019-05-11T01:33:25.562Z,70.40
2019-05-11T01:35:56.509Z,70.30
2019-05-11T01:38:28.108Z,70.30
2019-05-11T01:40:59.365Z,70.20
2019-05-11T01:43:30.366Z,70.20
2019-05-11T01:46:01.329Z,70.40
2019-05-11T01:48:32.251Z,70.60
2019-05-11T01:51:03.390Z,70.70
2019-05-11T01:53:34.259Z,70.90
2019-05-11T01:56:05.534Z,70.90
2019-05-11T01:58:36.568Z,71.00
2019-05-11T02:01:07.569Z,71.10
2019-05-11T02:03:38.464Z,70.90
2019-05-11T02:06:09.423Z,71.00
2019-05-11T02:08:40.488Z,71.00
2019-05-11T02:11:16.354Z,71.00
2019-05-11T02:13:47.396Z,70.90
2019-05-11T02:16:18.434Z,71.00
2019-05-11T02:18:49.433Z,71.10
2019-05-11T02:21:20.609Z,71.10
2019-05-11T02:23:51.547Z,71.10
2019-05-11T02:26:22.655Z,70.90
2019-05-11T02:28:54.402Z,70.80
2019-05-11T02:31:25.557Z,70.70
2019-05-11T02:33:56.648Z,70.60
2019-05-11T02:36:28.339Z,70.70
2019-05-11T02:39:00.095Z,70.90
2019-05-11T02:41:36.082Z,71.00
2019-05-11T02:44:03.977Z,71.10
2019-05-11T02:46:35.923Z,71.20
2019-05-11T02:49:08.445Z,71.20
2019-05-11T02:51:41.008Z,71.20
2019-05-11T02:54:12.282Z,71.00
2019-05-11T02:56:43.316Z,71.30
2019-05-11T02:59:14.241Z,71.30
2019-05-11T03:01:45.251Z,70.90
2019-05-11T03:04:16.207Z,70.60
2019-05-11T03:06:47.898Z,70.50
2019-05-11T03:09:19.515Z,70.60
2019-05-11T03:11:55.599Z,70.80
2019-05-11T03:14:23.823Z,70.70
2019-05-11T03:17:12.282Z,70.50
2019-05-11T03:19:43.366Z,70.20
2019-05-11T03:22:14.723Z,70.20
2019-05-11T03:24:45.775Z,70.40
2019-05-11T03:27:16.855Z,70.40
2019-05-11T03:29:48.276Z,70.30
2019-05-11T03:32:19.430Z,70.50
2019-05-11T03:34:50.361Z,70.90
2019-05-11T03:37:22.030Z,70.90
2019-05-11T03:39:52.992Z,71.10
2019-05-11T03:42:24.660Z,71.20
2019-05-11T03:44:55.622Z,71.00
2019-05-11T03:47:27.178Z,71.10
2019-05-11T03:49:58.165Z,71.00
2019-05-11T03:52:29.146Z,71.00
2019-05-11T03:55:00.491Z,70.90
2019-05-11T03:57:32.245Z,70.80
2019-05-11T04:00:03.712Z,70.70
2019-05-11T04:02:34.820Z,70.60
2019-05-11T04:05:06.370Z,70.70
2019-05-11T04:07:37.777Z,70.70
2019-05-11T04:10:09.593Z,70.60
2019-05-11T04:12:40.638Z,70.50
2019-05-11T04:15:11.927Z,70.30
2019-05-11T04:17:43.624Z,70.20
2019-05-11T04:20:15.355Z,70.10
2019-05-11T04:22:46.404Z,69.90
2019-05-11T04:25:17.390Z,70.00
2019-05-11T04:27:48.424Z,70.20
2019-05-11T04:30:19.607Z,70.30
2019-05-11T04:32:50.579Z,70.30
2019-05-11T04:35:22.205Z,70.10
2019-05-11T04:37:54.089Z,70.20
2019-05-11T04:40:25.635Z,70.10
2019-05-11T04:42:57.436Z,70.10
2019-05-11T04:45:29.100Z,70.00
2019-05-11T04:48:00.221Z,69.90
2019-05-11T04:50:31.386Z,70.00
2019-05-11T04:53:02.496Z,69.70
2019-05-11T04:55:33.515Z,69.50
2019-05-11T04:58:05.308Z,69.40
2019-05-11T05:00:36.405Z,69.10
2019-05-11T05:03:08.567Z,68.60
2019-05-11T05:05:39.861Z,68.70
2019-05-11T05:08:10.974Z,68.60
2019-05-11T05:10:42.020Z,68.40
2019-05-11T05:13:13.107Z,67.90
2019-05-11T05:15:44.115Z,68.10
2019-05-11T05:18:15.285Z,68.10
2019-05-11T05:20:46.346Z,68.60
2019-05-11T05:23:17.504Z,68.50
2019-05-11T05:25:48.586Z,68.50
2019-05-11T05:28:19.966Z,68.30
2019-05-11T05:30:51.069Z,68.10
2019-05-11T05:33:22.733Z,67.50
2019-05-11T05:35:54.653Z,67.00
2019-05-11T05:38:26.694Z,65.90
2019-05-11T05:40:59.221Z,65.40
2019-05-11T05:43:31.109Z,65.00
2019-05-11T05:46:02.217Z,65.10
2019-05-11T05:48:33.845Z,64.80
2019-05-11T05:51:06.444Z,64.50
2019-05-11T05:53:38.166Z,64.40
2019-05-11T05:56:09.763Z,64.50
2019-05-11T05:58:41.676Z,64.30
2019-05-11T06:01:13.606Z,64.20
2019-05-11T06:03:45.603Z,63.90
2019-05-11T06:06:17.319Z,63.50
2019-05-11T06:08:49.061Z,62.40
2019-05-11T06:11:20.599Z,62.30
2019-05-11T06:13:52.052Z,62.50
2019-05-11T06:16:23.483Z,61.80
2019-05-11T06:18:55.363Z,62.10
2019-05-11T06:21:27.272Z,62.00
2019-05-11T06:24:05.363Z,61.60
2019-05-11T06:26:31.297Z,61.90
2019-05-11T06:29:02.442Z,62.20
2019-05-11T06:31:33.761Z,62.50
2019-05-11T06:34:05.544Z,62.50
2019-05-11T06:36:38.578Z,63.00
2019-05-11T06:39:11.287Z,62.30
2019-05-11T06:41:46.189Z,62.20
2019-05-11T06:44:18.350Z,62.10
2019-05-11T06:46:49.899Z,62.50
2019-05-11T06:49:21.121Z,62.60
2019-05-11T06:51:52.124Z,62.50
2019-05-11T06:54:23.232Z,62.20
2019-05-11T06:56:54.578Z,62.40
2019-05-11T06:59:30.126Z,62.10
2019-05-11T07:02:01.193Z,61.80
2019-05-11T07:04:32.898Z,61.20
2019-05-11T07:07:04.501Z,60.90
2019-05-11T07:09:35.656Z,60.90
2019-05-11T07:12:07.095Z,59.90
2019-05-11T07:14:38.252Z,59.90
2019-05-11T07:17:09.313Z,60.60
2019-05-11T07:19:41.128Z,60.40
2019-05-11T07:22:12.885Z,60.20
2019-05-11T07:24:45.715Z,60.20
2019-05-11T07:27:17.269Z,60.20
2019-05-11T07:29:49.027Z,61.40
2019-05-11T07:32:25.761Z,61.00
2019-05-11T07:35:01.164Z,60.80
2019-05-11T07:37:32.981Z,60.90
2019-05-11T07:40:08.098Z,61.60
2019-05-11T07:42:39.342Z,61.50
2019-05-11T07:45:12.354Z,61.10
2019-05-11T07:47:43.640Z,61.00
2019-05-11T07:50:17.928Z,61.10
2019-05-11T07:52:48.623Z,60.80
2019-05-11T07:55:21.162Z,60.80
2019-05-11T07:57:52.986Z,60.30
2019-05-11T08:00:39.591Z,60.40
2019-05-11T08:06:08.956Z,59.50
2019-05-11T08:08:40.660Z,59.70
2019-05-11T08:11:12.378Z,59.30
2019-05-11T08:13:44.899Z,59.00
2019-05-11T08:16:18.591Z,59.30
2019-05-11T08:18:50.587Z,59.70
2019-05-11T08:21:22.540Z,60.60
2019-05-11T08:23:54.220Z,59.50
2019-05-11T08:26:28.060Z,59.10
2019-05-11T08:28:59.470Z,58.70
2019-05-11T08:31:31.343Z,58.90
2019-05-11T08:34:08.844Z,58.60
2019-05-11T08:36:52.686Z,58.90
2019-05-11T08:39:24.532Z,59.00
2019-05-11T08:41:59.007Z,58.70
2019-05-11T08:44:31.026Z,58.80
2019-05-11T08:47:29.028Z,57.30
2019-05-11T08:50:00.572Z,56.90
2019-05-11T08:52:32.349Z,55.30
2019-05-11T08:55:03.939Z,54.80
2019-05-11T08:57:35.415Z,54.80
2019-05-11T09:00:08.521Z,52.80
2019-05-11T09:02:40.404Z,51.80
2019-05-11T09:05:12.215Z,51.60
2019-05-11T09:07:43.968Z,52.30
2019-05-11T09:10:18.534Z,52.90
2019-05-11T09:12:49.979Z,53.20
2019-05-11T09:15:33.666Z,52.90
2019-05-11T09:17:54.252Z,53.20
2019-05-11T09:20:28.509Z,53.00
2019-05-11T09:22:59.459Z,53.10
2019-05-11T09:25:30.626Z,53.10
2019-05-11T09:28:02.500Z,52.60
2019-05-11T09:30:33.666Z,52.80
2019-05-11T09:33:05.310Z,52.50
2019-05-11T09:35:49.298Z,52.50
2019-05-11T09:38:10.453Z,53.40
2019-05-11T09:40:42.026Z,54.60
2019-05-11T09:43:13.703Z,54.70
2019-05-11T09:45:48.632Z,54.30
2019-05-11T09:48:19.768Z,54.00
2019-05-11T09:50:51.055Z,54.20
2019-05-11T09:53:22.177Z,54.20
2019-05-11T09:55:53.160Z,54.20
2019-05-11T09:58:24.778Z,54.70
2019-05-11T10:00:58.447Z,55.20
2019-05-11T10:03:28.900Z,55.20
2019-05-11T10:06:00.097Z,55.00
2019-05-11T10:08:32.819Z,54.70
2019-05-11T10:11:04.302Z,54.80
2019-05-11T10:13:38.282Z,54.10
2019-05-11T10:16:10.738Z,53.70
2019-05-11T10:18:42.686Z,52.90
2019-05-11T10:21:14.218Z,51.90
2019-05-11T10:23:45.611Z,51.70
2019-05-11T10:26:18.787Z,51.30
2019-05-11T10:28:50.166Z,50.20
2019-05-11T10:31:21.989Z,51.20
2019-05-11T10:33:53.140Z,51.30
2019-05-11T10:36:24.096Z,51.80
2019-05-11T10:38:55.278Z,51.60
2019-05-11T10:41:28.451Z,52.00
2019-05-11T10:44:00.404Z,51.90
2019-05-11T10:46:31.616Z,52.30
2019-05-11T10:49:02.649Z,52.80
2019-05-11T10:51:34.227Z,52.90
2019-05-11T10:54:05.439Z,52.60
2019-05-11T10:56:38.834Z,52.80
2019-05-11T10:59:10.644Z,52.90
2019-05-11T11:01:41.881Z,52.60
2019-05-11T11:04:13.439Z,51.60
2019-05-11T11:06:45.138Z,51.00
2019-05-11T11:09:17.763Z,49.50
2019-05-11T11:11:49.143Z,49.20
2019-05-11T11:14:20.259Z,48.70
2019-05-11T11:16:51.436Z,48.40
2019-05-11T11:19:23.140Z,46.00
2019-05-11T11:21:54.311Z,45.00
2019-05-11T11:24:25.358Z,44.90
2019-05-11T11:26:57.642Z,45.20
2019-05-11T11:29:28.980Z,44.90
2019-05-11T11:32:00.027Z,45.80
2019-05-11T11:34:31.244Z,46.50
2019-05-11T11:37:02.477Z,45.40
2019-05-11T11:39:34.456Z,42.60
2019-05-11T11:42:05.531Z,41.10
2019-05-11T11:44:37.956Z,42.50
2019-05-11T11:47:09.715Z,43.10
2019-05-11T11:49:41.459Z,41.70
2019-05-11T11:52:13.058Z,42.00
2019-05-11T11:54:44.195Z,43.00
2019-05-11T11:57:15.647Z,43.40
2019-05-11T11:59:48.068Z,44.30
2019-05-11T12:02:19.489Z,43.00
2019-05-11T12:04:50.715Z,41.60
2019-05-11T12:07:23.091Z,40.60
2019-05-11T12:09:54.727Z,40.00
2019-05-11T12:12:27.924Z,40.60
2019-05-11T12:14:59.142Z,40.70
2019-05-11T12:17:30.277Z,41.00
2019-05-11T12:20:01.891Z,40.70
2019-05-11T12:22:33.017Z,40.30
2019-05-11T12:25:04.676Z,40.30
2019-05-11T12:27:38.078Z,40.40
2019-05-11T12:30:09.121Z,37.80
2019-05-11T12:32:45.483Z,38.10
2019-05-11T12:35:18.058Z,39.50
2019-05-11T12:37:50.211Z,38.70
2019-05-11T12:40:21.378Z,38.70
2019-05-11T12:42:52.360Z,38.90
2019-05-11T12:45:23.836Z,39.80
2019-05-11T12:47:55.046Z,40.00
2019-05-11T12:50:29.662Z,38.80
2019-05-11T12:53:00.813Z,38.50
2019-05-11T12:55:31.913Z,38.30
2019-05-11T12:58:03.517Z,38.10
2019-05-11T13:00:34.737Z,38.40
2019-05-11T13:03:07.979Z,39.40
2019-05-11T13:05:38.864Z,39.50
2019-05-11T13:08:10.715Z,38.70
2019-05-11T13:10:41.886Z,38.70
2019-05-11T13:13:12.860Z,38.00
2019-05-11T13:15:43.975Z,37.10
2019-05-11T13:18:15.028Z,36.60
2019-05-11T13:20:48.037Z,37.30
2019-05-11T13:23:18.743Z,35.40
2019-05-11T13:25:49.828Z,34.40
2019-05-11T13:28:20.811Z,34.30
2019-05-11T13:30:52.965Z,35.20
2019-05-11T13:33:23.934Z,36.30
2019-05-11T13:35:54.938Z,36.00
2019-05-11T13:38:28.122Z,35.30
2019-05-11T13:40:59.447Z,32.70
2019-05-11T13:43:31.186Z,31.80
2019-05-11T13:46:02.917Z,32.20
2019-05-11T13:48:34.100Z,33.70
2019-05-11T13:51:05.796Z,34.80
2019-05-11T13:53:37.770Z,35.20
2019-05-11T13:56:09.527Z,35.60
2019-05-11T13:58:40.524Z,35.70
2019-05-11T14:01:11.623Z,36.60
2019-05-11T14:03:42.705Z,34.30
2019-05-11T14:06:13.855Z,32.30
2019-05-11T14:08:48.144Z,32.50
2019-05-11T14:11:19.296Z,32.90
2019-05-11T14:13:50.285Z,32.80
2019-05-11T14:16:21.749Z,34.10
2019-05-11T14:18:53.108Z,35.00
2019-05-11T14:21:24.405Z,35.70
2019-05-11T14:23:55.650Z,36.20
2019-05-11T14:26:28.055Z,36.20
2019-05-11T14:28:59.197Z,34.90
2019-05-11T14:31:31.269Z,34.70
2019-05-11T14:34:02.377Z,35.70
2019-05-11T14:36:33.509Z,36.40
2019-05-11T14:39:08.387Z,34.60
2019-05-11T14:41:40.755Z,33.90
2019-05-11T14:44:11.824Z,32.50
2019-05-11T14:46:43.089Z,32.40
2019-05-11T14:49:14.261Z,32.70
2019-05-11T14:51:45.490Z,32.10
2019-05-11T14:54:18.731Z,31.40
2019-05-11T14:56:50.909Z,31.30
2019-05-11T14:59:22.656Z,30.70
2019-05-11T15:01:53.979Z,30.60
2019-05-11T15:04:30.978Z,30.10
2019-05-11T15:07:08.377Z,31.10
2019-05-11T15:09:41.615Z,30.50
2019-05-11T15:12:17.980Z,30.20
2019-05-11T15:14:50.257Z,31.20
2019-05-11T15:17:24.021Z,30.50
2019-05-11T15:20:00.630Z,30.00
2019-05-11T15:22:34.388Z,30.90
2019-05-11T15:25:08.034Z,31.00
2019-05-11T15:27:41.567Z,30.60
2019-05-11T15:30:18.056Z,29.90
2019-05-11T15:32:50.793Z,31.30
2019-05-11T15:35:28.468Z,31.80
2019-05-11T15:38:02.671Z,31.80
2019-05-11T15:40:41.763Z,32.60
2019-05-11T15:43:18.532Z,32.60
2019-05-11T15:45:51.333Z,32.20
2019-05-11T15:48:28.062Z,32.60
2019-05-11T15:51:01.054Z,32.80
2019-05-11T15:53:34.484Z,32.30
2019-05-11T15:56:08.598Z,32.10
2019-05-11T15:58:40.348Z,32.50
2019-05-11T16:01:12.100Z,32.70
2019-05-11T16:03:43.811Z,34.30
2019-05-11T16:06:18.319Z,34.60
2019-05-11T16:08:51.162Z,34.70
2019-05-11T16:11:22.931Z,34.50
2019-05-11T16:13:58.548Z,34.80
2019-05-11T16:16:30.615Z,35.30
2019-05-11T16:19:11.675Z,35.70
2019-05-11T16:21:38.123Z,36.10
2019-05-11T16:24:10.844Z,35.10
2019-05-11T16:26:43.011Z,34.70
2019-05-11T16:29:18.548Z,34.60
2019-05-11T16:31:49.857Z,34.20
2019-05-11T16:34:22.380Z,34.50
2019-05-11T16:36:55.048Z,34.60
2019-05-11T16:39:27.976Z,34.90
2019-05-11T16:42:01.379Z,34.40
2019-05-11T16:44:37.738Z,36.50
2019-05-11T16:47:08.613Z,38.00
2019-05-11T16:49:40.764Z,38.70
2019-05-11T16:52:12.765Z,40.20
2019-05-11T16:57:38.037Z,42.00
2019-05-11T17:00:11.004Z,43.20
2019-05-11T17:02:42.804Z,43.60
2019-05-11T17:05:25.780Z,43.70
2019-05-11T17:07:48.297Z,43.40
2019-05-11T17:10:20.405Z,43.70
2019-05-11T17:12:52.610Z,44.00
2019-05-11T17:15:24.292Z,44.40
2019-05-11T17:17:55.885Z,44.80
2019-05-11T17:20:27.886Z,45.10
2019-05-11T17:22:59.490Z,45.30
2019-05-11T17:25:31.086Z,45.50
2019-05-11T17:28:02.651Z,45.70
2019-05-11T17:30:34.135Z,46.40
2019-05-11T17:33:05.507Z,46.90
2019-05-11T17:35:36.927Z,47.40
2019-05-11T17:38:08.382Z,47.80
2019-05-11T17:40:39.672Z,48.20
2019-05-11T17:43:11.460Z,48.40
2019-05-11T17:45:43.014Z,48.50
2019-05-11T17:48:14.603Z,48.80
2019-05-11T17:50:45.925Z,49.10
2019-05-11T17:53:18.232Z,49.40
2019-05-11T17:55:49.816Z,50.00
2019-05-11T17:58:21.410Z,50.20
2019-05-11T18:00:53.045Z,50.40
2019-05-11T18:03:27.686Z,51.00
2019-05-11T18:05:59.504Z,51.30
2019-05-11T18:08:32.614Z,51.80
2019-05-11T18:11:04.173Z,51.90
2019-05-11T18:13:38.971Z,52.10
2019-05-11T18:16:12.411Z,52.50
2019-05-11T18:18:45.232Z,52.50
2019-05-11T18:21:18.819Z,52.70
2019-05-11T18:23:49.928Z,53.00
2019-05-11T18:26:22.132Z,53.40
2019-05-11T18:28:53.711Z,53.70
2019-05-11T18:31:25.904Z,54.20
2019-05-11T18:33:59.204Z,54.70
2019-05-11T18:36:31.613Z,55.30
2019-05-11T18:39:05.574Z,55.60
2019-05-11T18:41:39.159Z,55.80
2019-05-11T18:44:10.365Z,55.90
2019-05-11T18:46:45.093Z,55.80
2019-05-11T18:49:17.899Z,56.10
2019-05-11T18:51:49.731Z,56.20
2019-05-11T18:54:21.405Z,56.50
2019-05-11T18:56:52.772Z,56.50
2019-05-11T18:59:23.974Z,56.70
2019-05-11T19:01:55.655Z,56.80
2019-05-11T19:04:28.738Z,56.80
2019-05-11T19:07:13.087Z,56.80
2019-05-11T19:09:33.791Z,56.70
2019-05-11T19:12:05.100Z,56.90
2019-05-11T19:14:38.599Z,56.90
2019-05-11T19:17:09.767Z,56.90
2019-05-11T19:19:41.014Z,56.60
2019-05-11T19:22:12.048Z,56.50
2019-05-11T19:24:43.955Z,56.60
2019-05-11T19:27:15.513Z,56.80
2019-05-11T19:29:48.404Z,57.00
2019-05-11T19:32:19.591Z,57.10
2019-05-11T19:34:50.561Z,57.20
2019-05-11T19:37:21.459Z,57.30
2019-05-11T19:39:52.553Z,57.40
2019-05-11T19:42:23.671Z,57.80
2019-05-11T19:44:55.697Z,57.90
2019-05-11T19:47:28.235Z,58.00
2019-05-11T19:49:59.339Z,57.80
2019-05-11T19:52:31.217Z,57.70
2019-05-11T19:55:02.899Z,57.50
2019-05-11T19:57:34.107Z,57.50
2019-05-11T20:00:07.866Z,57.60
2019-05-11T20:02:39.125Z,58.00
2019-05-11T20:05:10.534Z,58.40
2019-05-11T20:07:41.697Z,58.50
2019-05-11T20:10:12.762Z,58.70
2019-05-11T20:12:43.741Z,58.90
2019-05-11T20:15:15.099Z,59.10
2019-05-11T20:17:48.640Z,59.50
2019-05-11T20:20:20.478Z,59.80
2019-05-11T20:22:51.625Z,59.70
2019-05-11T20:25:22.863Z,60.00
2019-05-11T20:27:53.897Z,60.10
2019-05-11T20:30:25.239Z,60.20
2019-05-11T20:32:56.228Z,60.40
2019-05-11T20:35:27.994Z,60.40
2019-05-11T20:38:00.661Z,60.40
2019-05-11T20:40:38.330Z,60.20
2019-05-11T20:43:09.498Z,60.20
2019-05-11T20:45:40.712Z,60.40
2019-05-11T20:48:11.857Z,60.70
2019-05-11T20:50:43.039Z,60.60
2019-05-11T20:53:14.516Z,60.30
2019-05-11T20:55:47.912Z,60.20
2019-05-11T20:58:19.167Z,60.20
2019-05-11T21:00:51.346Z,60.60
2019-05-11T21:03:23.008Z,60.70
2019-05-11T21:05:54.285Z,60.80
2019-05-11T21:08:28.489Z,60.70
2019-05-11T21:10:59.672Z,60.80
2019-05-11T21:13:30.618Z,60.90
2019-05-11T21:16:01.758Z,61.10
2019-05-11T21:18:32.842Z,61.30
2019-05-11T21:21:04.063Z,61.30
2019-05-11T21:23:35.164Z,61.50
2019-05-11T21:26:09.762Z,61.30
2019-05-11T21:28:39.047Z,61.20
2019-05-11T21:31:10.238Z,61.50
2019-05-11T21:33:41.463Z,61.70
2019-05-11T21:36:12.573Z,62.10
2019-05-11T21:38:43.638Z,62.20
2019-05-11T21:41:14.711Z,62.00
2019-05-11T21:43:48.338Z,62.20
2019-05-11T21:46:19.369Z,62.00
2019-05-11T21:48:50.242Z,61.90
2019-05-11T21:51:21.398Z,61.90
2019-05-11T21:53:52.377Z,62.00
2019-05-11T21:56:23.445Z,62.10
2019-05-11T21:58:54.456Z,62.10
2019-05-11T22:01:27.878Z,62.10
2019-05-11T22:03:59.502Z,62.00
2019-05-11T22:06:33.624Z,61.90
2019-05-11T22:09:08.248Z,61.90
2019-05-11T22:11:39.473Z,61.70
2019-05-11T22:14:10.468Z,61.60
2019-05-11T22:16:41.693Z,61.90
2019-05-11T22:19:12.688Z,62.30
2019-05-11T22:21:43.753Z,62.00
2019-05-11T22:24:14.860Z,62.00
2019-05-11T22:26:45.924Z,62.00
2019-05-11T22:29:18.188Z,62.30
2019-05-11T22:31:49.184Z,62.30
2019-05-11T22:34:20.211Z,63.10
2019-05-11T22:36:52.286Z,62.30
2019-05-11T22:39:23.476Z,62.30
2019-05-11T22:41:54.714Z,63.10
2019-05-11T22:44:27.770Z,62.30
2019-05-11T22:46:59.204Z,62.10
2019-05-11T22:49:33.020Z,61.90
2019-05-11T22:52:04.179Z,61.70
2019-05-11T22:54:35.238Z,61.90
2019-05-11T22:57:08.108Z,62.10
2019-05-11T22:59:38.890Z,62.40
2019-05-11T23:02:10.841Z,62.40
2019-05-11T23:04:42.037Z,62.20
2019-05-11T23:07:14.071Z,62.10
2019-05-11T23:09:45.363Z,62.10
2019-05-11T23:12:17.983Z,62.00
2019-05-11T23:15:08.047Z,61.90
2019-05-11T23:17:39.105Z,62.00
2019-05-11T23:20:11.561Z,62.40
2019-05-11T23:22:56.923Z,62.60
2019-05-11T23:25:21.205Z,62.80
2019-05-11T23:27:52.445Z,62.70
2019-05-11T23:30:23.614Z,62.70
2019-05-11T23:32:54.656Z,62.80
2019-05-11T23:35:28.608Z,62.60
2019-05-11T23:37:59.370Z,62.40
2019-05-11T23:40:30.551Z,62.90
2019-05-11T23:43:01.733Z,63.20
2019-05-11T23:45:32.686Z,63.30
2019-05-11T23:48:03.713Z,63.50
2019-05-11T23:50:34.549Z,63.50
2019-05-11T23:53:07.521Z,63.30
2019-05-11T23:55:38.344Z,63.10
2019-05-11T23:58:09.377Z,62.80
